Time;durP1;ratioP1;P1;durP2;ratioP2;P2;SDS_P1;SDS_P2;PMS_P1;PMS_P2;Temp;Humidity;BMP_temperature;BMP_pressure;BME280_temperature;BME280_humidity;BME280_pressure;Samples;Min_cycle;Max_cycle;Signal;HPM_P1;HPM_P2
2023/09/20 00:02:00;;;;;;;21.67;6.13;;;17.00;99.90;;;;;;5012372;28;20118;-82
2023/09/20 00:04:47;;;;;;;17.90;5.18;;;17.00;99.90;;;;;;5010990;28;20058;-89
2023/09/20 00:07:33;;;;;;;14.68;4.65;;;17.00;99.90;;;;;;5010976;28;20060;-87
2023/09/20 00:10:21;;;;;;;14.73;4.75;;;16.90;99.90;;;;;;5011852;28;20049;-88
2023/09/20 00:13:10;;;;;;;17.92;5.45;;;16.90;99.90;;;;;;5013362;28;20073;-92
2023/09/20 00:15:56;;;;;;;23.35;5.00;;;16.90;99.90;;;;;;5012994;28;20057;-91
2023/09/20 00:18:42;;;;;;;17.23;5.22;;;16.90;99.90;;;;;;5012095;28;20117;-93
2023/09/20 00:21:28;;;;;;;17.48;5.28;;;16.90;99.90;;;;;;5012579;28;20815;-80
2023/09/20 00:24:14;;;;;;;15.50;4.82;;;16.80;99.90;;;;;;5003297;28;20080;-78
2023/09/20 00:27:00;;;;;;;15.75;4.80;;;16.80;99.90;;;;;;5017381;28;20053;-85
2023/09/20 00:29:46;;;;;;;20.80;4.93;;;16.80;99.90;;;;;;5014362;28;20057;-87
2023/09/20 00:32:33;;;;;;;22.67;4.72;;;16.80;99.90;;;;;;5032625;28;20050;-88
2023/09/20 00:35:21;;;;;;;22.02;5.32;;;16.80;99.90;;;;;;5031546;28;20064;-81
2023/09/20 00:38:08;;;;;;;25.17;5.60;;;16.80;99.90;;;;;;5031454;28;20108;-89
2023/09/20 00:40:54;;;;;;;20.25;3.70;;;16.80;99.90;;;;;;5032268;28;20540;-81
2023/09/20 00:43:41;;;;;;;15.88;5.18;;;16.80;99.90;;;;;;5031525;28;20042;-77
2023/09/20 00:46:27;;;;;;;16.95;4.32;;;16.80;99.90;;;;;;5032121;28;20421;-78
2023/09/20 00:49:13;;;;;;;13.73;3.95;;;16.80;99.90;;;;;;5031401;28;20111;-77
2023/09/20 00:51:59;;;;;;;19.05;5.10;;;16.80;99.90;;;;;;5013624;28;20068;-77
2023/09/20 00:54:45;;;;;;;16.73;5.13;;;16.90;99.90;;;;;;5030494;28;20053;-78
2023/09/20 00:57:32;;;;;;;16.02;4.20;;;16.90;99.90;;;;;;5032229;28;20132;-78
2023/09/20 01:00:21;;;;;;;14.10;4.28;;;16.90;99.90;;;;;;5031708;28;20057;-80
2023/09/20 01:03:09;;;;;;;12.05;4.22;;;17.00;99.90;;;;;;5031109;28;20140;-79
2023/09/20 01:05:55;;;;;;;11.68;3.90;;;17.00;99.90;;;;;;5013841;28;20057;-80
2023/09/20 01:08:41;;;;;;;19.30;4.05;;;17.00;99.90;;;;;;5031858;28;20041;-86
2023/09/20 01:11:28;;;;;;;14.00;3.45;;;17.00;99.90;;;;;;5019381;28;20053;-78
2023/09/20 01:14:14;;;;;;;13.82;3.50;;;17.10;99.90;;;;;;5013491;28;20111;-78
2023/09/20 01:17:07;;;;;;;27.65;4.70;;;17.00;99.90;;;;;;5013105;28;20049;-77
2023/09/20 01:19:53;;;;;;;14.23;4.32;;;17.10;99.90;;;;;;4999641;28;20057;-80
2023/09/20 01:22:40;;;;;;;15.85;4.93;;;17.00;99.90;;;;;;5015560;28;20572;-78
2023/09/20 01:25:32;;;;;;;17.70;4.35;;;17.10;99.90;;;;;;5013670;28;20049;-81
2023/09/20 01:28:18;;;;;;;13.50;3.78;;;17.00;99.90;;;;;;5031385;28;20053;-77
2023/09/20 01:31:07;;;;;;;27.20;5.10;;;17.00;99.90;;;;;;5030479;28;20057;-79
2023/09/20 01:33:54;;;;;;;21.42;4.28;;;17.00;99.90;;;;;;5012345;28;20057;-82
2023/09/20 01:36:40;;;;;;;22.33;5.50;;;17.00;99.90;;;;;;4999986;28;20486;-80
2023/09/20 01:39:27;;;;;;;13.10;5.03;;;17.00;99.90;;;;;;5030239;28;20045;-79
2023/09/20 01:42:15;;;;;;;18.58;4.30;;;17.00;99.90;;;;;;5013078;28;20784;-79
2023/09/20 01:45:06;;;;;;;17.88;5.22;;;17.10;99.90;;;;;;5032267;28;20052;-79
2023/09/20 01:47:54;;;;;;;20.77;4.93;;;17.00;99.90;;;;;;5016804;28;20060;-88
2023/09/20 01:50:41;;;;;;;20.33;5.28;;;17.00;99.90;;;;;;5017480;28;20049;-85
2023/09/20 01:53:27;;;;;;;18.25;5.68;;;17.00;99.90;;;;;;5034190;28;20198;-92
2023/09/20 01:56:14;;;;;;;17.88;4.70;;;17.00;99.90;;;;;;5035279;28;20106;-92
2023/09/20 01:59:00;;;;;;;18.75;4.63;;;17.00;99.90;;;;;;5035584;28;20460;-93
2023/09/20 02:01:48;;;;;;;15.75;3.78;;;17.00;99.90;;;;;;5043229;28;20041;-77
2023/09/20 02:04:34;;;;;;;15.55;4.40;;;16.90;99.90;;;;;;5026551;28;20055;-82
2023/09/20 02:07:21;;;;;;;20.00;4.65;;;16.90;99.90;;;;;;5022556;28;20053;-82
2023/09/20 02:10:08;;;;;;;17.65;4.88;;;16.90;99.90;;;;;;5022806;28;20432;-77
2023/09/20 02:12:55;;;;;;;23.13;4.70;;;16.90;99.90;;;;;;5003353;28;20052;-85
2023/09/20 02:15:41;;;;;;;18.13;4.88;;;16.90;99.90;;;;;;5002420;28;20061;-84
2023/09/20 02:18:27;;;;;;;24.00;5.25;;;17.00;99.90;;;;;;5016173;28;20049;-83
2023/09/20 02:21:13;;;;;;;19.02;4.20;;;17.00;99.90;;;;;;5016580;28;20069;-84
2023/09/20 02:24:00;;;;;;;20.42;4.57;;;17.00;99.90;;;;;;5034468;28;20575;-89
2023/09/20 02:26:48;;;;;;;11.65;4.07;;;17.00;99.90;;;;;;5015386;28;20124;-84
2023/09/20 02:29:35;;;;;;;20.83;4.43;;;17.00;99.90;;;;;;5033562;28;20049;-84
2023/09/20 02:32:23;;;;;;;18.08;4.75;;;17.10;99.90;;;;;;5033079;28;20529;-86
2023/09/20 02:35:10;;;;;;;15.50;4.78;;;17.00;99.90;;;;;;5017195;28;20085;-90
2023/09/20 02:37:58;;;;;;;16.52;5.10;;;17.00;99.90;;;;;;5015531;28;20061;-79
2023/09/20 02:40:46;;;;;;;16.88;4.88;;;17.10;99.90;;;;;;5017161;28;20045;-87
2023/09/20 02:43:32;;;;;;;15.00;4.30;;;17.00;99.90;;;;;;5033193;28;20057;-85
2023/09/20 02:46:20;;;;;;;21.63;4.88;;;17.00;99.90;;;;;;5019210;28;20049;-90
2023/09/20 02:49:07;;;;;;;17.08;3.75;;;17.10;99.90;;;;;;5022320;28;20084;-91
2023/09/20 02:51:53;;;;;;;16.13;3.97;;;17.00;99.90;;;;;;5020902;28;20057;-85
2023/09/20 02:54:39;;;;;;;18.05;3.88;;;17.00;99.90;;;;;;5041248;28;20050;-95
2023/09/20 02:57:26;;;;;;;15.00;4.15;;;17.00;99.90;;;;;;5023180;28;20053;-81
2023/09/20 03:00:17;;;;;;;24.55;4.40;;;17.10;99.90;;;;;;5014981;28;20140;-87
2023/09/20 03:03:08;;;;;;;17.88;4.60;;;17.00;99.90;;;;;;5032825;28;20781;-86
2023/09/20 03:05:54;;;;;;;16.50;4.32;;;17.00;99.90;;;;;;5016056;28;20053;-82
2023/09/20 03:08:44;;;;;;;21.05;5.53;;;17.10;99.90;;;;;;5015632;28;20089;-91
2023/09/20 03:11:30;;;;;;;18.73;5.28;;;17.10;99.90;;;;;;5015641;28;20490;-90
2023/09/20 03:14:16;;;;;;;12.65;3.80;;;17.10;99.90;;;;;;5001456;28;20056;-81
2023/09/20 03:17:03;;;;;;;15.52;5.15;;;17.10;99.90;;;;;;5033465;28;20050;-80
2023/09/20 03:19:53;;;;;;;15.48;4.40;;;17.10;99.90;;;;;;5032454;28;20045;-87
2023/09/20 03:22:40;;;;;;;15.15;4.40;;;17.10;99.90;;;;;;5001574;28;20398;-91
2023/09/20 03:25:35;;;;;;;16.85;4.53;;;17.20;99.90;;;;;;5032200;28;20124;-82
2023/09/20 03:28:22;;;;;;;11.80;3.28;;;17.20;99.90;;;;;;5014741;28;20042;-85
2023/09/20 03:31:10;;;;;;;10.82;3.95;;;17.20;99.90;;;;;;5032345;28;20140;-88
2023/09/20 03:33:56;;;;;;;10.10;3.92;;;17.20;99.90;;;;;;5001762;28;20045;-79
2023/09/20 03:36:43;;;;;;;13.77;3.08;;;17.30;99.90;;;;;;5032050;28;20064;-79
2023/09/20 03:39:30;;;;;;;13.82;3.65;;;17.30;99.90;;;;;;5001878;28;20057;-91
2023/09/20 03:42:16;;;;;;;14.80;3.63;;;17.30;99.90;;;;;;5032831;28;20104;-85
2023/09/20 03:45:02;;;;;;;16.42;4.50;;;17.30;99.90;;;;;;5032516;28;20050;-88
2023/09/20 03:47:49;;;;;;;14.63;4.22;;;17.30;99.90;;;;;;5004413;28;20501;-82
2023/09/20 03:50:38;;;;;;;10.63;3.78;;;17.20;99.90;;;;;;5016048;28;20058;-85
2023/09/20 03:53:25;;;;;;;13.23;3.65;;;17.20;99.90;;;;;;5015600;28;20054;-89
2023/09/20 03:56:13;;;;;;;13.50;4.57;;;17.10;99.90;;;;;;5015934;28;20049;-86
2023/09/20 03:59:00;;;;;;;13.02;3.85;;;17.10;99.90;;;;;;5002402;28;20095;-90
2023/09/20 04:01:46;;;;;;;12.88;3.67;;;17.20;99.90;;;;;;5017543;28;20390;-84
2023/09/20 04:04:34;;;;;;;14.90;4.13;;;17.10;99.90;;;;;;5036814;28;20053;-81
2023/09/20 04:07:23;;;;;;;13.15;4.03;;;17.10;99.90;;;;;;5034922;28;20068;-83
2023/09/20 04:10:10;;;;;;;14.95;4.03;;;17.10;99.90;;;;;;5016949;28;20057;-87
2023/09/20 04:12:56;;;;;;;13.57;3.63;;;17.10;99.90;;;;;;5034122;28;20045;-80
2023/09/20 04:15:42;;;;;;;12.60;4.78;;;17.10;99.90;;;;;;5015485;28;20084;-87
2023/09/20 04:18:28;;;;;;;14.55;4.22;;;17.10;99.90;;;;;;5033375;28;20049;-81
2023/09/20 04:21:14;;;;;;;12.10;4.10;;;17.10;99.90;;;;;;5014206;28;20057;-78
2023/09/20 04:24:02;;;;;;;13.10;4.10;;;17.10;99.90;;;;;;5013996;28;20448;-79
2023/09/20 04:26:49;;;;;;;13.60;4.13;;;17.10;99.90;;;;;;5001356;28;20057;-82
2023/09/20 04:29:35;;;;;;;15.63;4.75;;;17.10;99.90;;;;;;5035081;28;20111;-85
2023/09/20 04:32:21;;;;;;;15.07;4.30;;;17.10;99.90;;;;;;5032826;28;20111;-79
2023/09/20 04:35:08;;;;;;;11.68;4.60;;;17.10;99.90;;;;;;5014837;28;20136;-75
2023/09/20 04:37:55;;;;;;;15.82;4.18;;;17.00;99.90;;;;;;5014279;28;20104;-94
2023/09/20 04:40:41;;;;;;;18.67;4.75;;;17.00;99.90;;;;;;5031970;28;20116;-87
2023/09/20 04:43:27;;;;;;;13.63;4.32;;;17.10;99.90;;;;;;5031533;28;20502;-79
2023/09/20 04:46:13;;;;;;;16.77;4.32;;;17.00;99.90;;;;;;5013721;28;20085;-94
2023/09/20 04:48:59;;;;;;;14.93;5.47;;;17.00;99.90;;;;;;5031774;28;20565;-89
2023/09/20 04:51:45;;;;;;;15.07;4.13;;;17.00;99.90;;;;;;5014937;28;20053;-91
2023/09/20 04:54:33;;;;;;;13.30;4.85;;;16.90;99.90;;;;;;5031578;28;20042;-95
2023/09/20 04:57:21;;;;;;;12.75;3.95;;;16.90;99.90;;;;;;5013962;28;20099;-93
2023/09/20 05:00:08;;;;;;;15.73;4.95;;;16.90;99.90;;;;;;5032280;28;20382;-92
2023/09/20 05:02:55;;;;;;;13.00;4.22;;;16.80;99.90;;;;;;5031301;28;20049;-91
2023/09/20 05:05:43;;;;;;;14.02;3.80;;;16.80;99.90;;;;;;5014109;28;20133;-92
2023/09/20 05:08:30;;;;;;;12.82;4.18;;;16.70;99.90;;;;;;5013490;28;20053;-84
2023/09/20 05:11:18;;;;;;;13.55;3.95;;;16.70;99.90;;;;;;5014010;28;20049;-86
2023/09/20 05:14:07;;;;;;;13.68;4.80;;;16.70;99.90;;;;;;5014829;28;20053;-90
2023/09/20 05:16:53;;;;;;;15.25;4.20;;;16.60;99.90;;;;;;5012384;28;20111;-92
2023/09/20 05:19:40;;;;;;;15.88;4.95;;;16.60;99.90;;;;;;5014797;28;20049;-77
2023/09/20 05:22:30;;;;;;;11.20;4.38;;;16.60;99.90;;;;;;5002974;28;20060;-77
2023/09/20 05:25:16;;;;;;;15.82;5.57;;;16.50;99.90;;;;;;5016993;28;20088;-79
2023/09/20 05:28:03;;;;;;;12.38;4.78;;;16.50;99.90;;;;;;5034770;28;20128;-78
2023/09/20 05:30:49;;;;;;;13.73;5.70;;;16.40;99.90;;;;;;5014686;28;20100;-78
2023/09/20 05:33:35;;;;;;;14.43;4.95;;;16.40;99.90;;;;;;5000329;28;20112;-77
2023/09/20 05:36:23;;;;;;;12.65;5.53;;;16.40;99.90;;;;;;5014893;28;20564;-78
2023/09/20 05:39:12;;;;;;;10.85;4.18;;;16.40;99.90;;;;;;5015141;28;20540;-79
2023/09/20 05:41:59;;;;;;;17.17;5.60;;;16.40;99.90;;;;;;5012260;28;20056;-79
2023/09/20 05:44:45;;;;;;;12.60;4.38;;;16.40;99.90;;;;;;5013741;28;20085;-77
2023/09/20 05:47:33;;;;;;;11.60;4.10;;;16.40;99.90;;;;;;5012305;28;20054;-77
2023/09/20 05:50:22;;;;;;;16.92;5.07;;;16.40;99.90;;;;;;5014509;28;20054;-80
2023/09/20 05:53:12;;;;;;;21.25;5.82;;;16.40;99.90;;;;;;5013677;28;20093;-83
2023/09/20 05:56:05;;;;;;;14.30;4.22;;;16.40;99.90;;;;;;5012932;28;20061;-81
2023/09/20 05:58:53;;;;;;;18.98;4.70;;;16.40;99.90;;;;;;5013215;28;20560;-81
2023/09/20 06:01:40;;;;;;;16.23;4.78;;;16.40;99.90;;;;;;5013400;28;20058;-77
2023/09/20 06:04:26;;;;;;;17.48;4.25;;;16.40;99.90;;;;;;5014698;28;20078;-79
2023/09/20 06:07:12;;;;;;;11.55;4.18;;;16.40;99.90;;;;;;5012508;28;20053;-85
2023/09/20 06:09:58;;;;;;;15.13;3.88;;;16.40;99.90;;;;;;5012137;28;20058;-79
2023/09/20 06:12:45;;;;;;;17.85;4.55;;;16.40;99.90;;;;;;5013080;28;20459;-84
2023/09/20 06:15:31;;;;;;;15.65;4.00;;;16.50;99.90;;;;;;5012515;28;20062;-80
2023/09/20 06:18:17;;;;;;;12.70;4.45;;;16.50;99.90;;;;;;5013641;28;20104;-83
2023/09/20 06:21:08;;;;;;;15.27;3.97;;;16.40;99.90;;;;;;5012987;28;20060;-88
2023/09/20 06:23:56;;;;;;;12.25;4.40;;;16.40;99.90;;;;;;5012723;28;20104;-88
2023/09/20 06:26:43;;;;;;;16.08;5.00;;;16.40;99.90;;;;;;5012944;28;20116;-84
2023/09/20 06:29:29;;;;;;;13.95;3.97;;;16.40;99.90;;;;;;5013191;28;20060;-81
2023/09/20 06:32:15;;;;;;;13.50;4.25;;;16.40;99.90;;;;;;5012540;28;20054;-84
2023/09/20 06:35:07;;;;;;;10.43;4.30;;;16.50;99.90;;;;;;5012757;28;20053;-82
2023/09/20 06:37:54;;;;;;;11.57;3.83;;;16.50;99.90;;;;;;4998368;28;20049;-78
2023/09/20 06:40:41;;;;;;;14.20;4.10;;;16.50;99.90;;;;;;4985851;28;20053;-87
2023/09/20 06:43:27;;;;;;;11.63;4.10;;;16.50;99.90;;;;;;5014015;28;20060;-85
2023/09/20 06:46:13;;;;;;;9.65;3.33;;;16.50;99.90;;;;;;5012988;28;20089;-85
2023/09/20 06:48:59;;;;;;;16.58;4.28;;;16.50;99.90;;;;;;5012111;28;20143;-83
2023/09/20 06:51:47;;;;;;;19.98;4.05;;;16.50;99.90;;;;;;5011742;28;20054;-82
2023/09/20 06:54:36;;;;;;;8.27;3.97;;;16.60;99.90;;;;;;4998155;28;20501;-84
2023/09/20 06:57:22;;;;;;;15.52;4.35;;;16.60;99.90;;;;;;4997666;28;20088;-78
2023/09/20 07:00:25;;;;;;;8.35;3.42;;;16.60;99.90;;;;;;5013529;28;20054;-82
2023/09/20 07:03:11;;;;;;;14.93;4.63;;;16.60;99.90;;;;;;5014023;28;20502;-80
2023/09/20 07:05:57;;;;;;;11.88;4.25;;;16.60;99.90;;;;;;5012152;28;20449;-88
2023/09/20 07:08:43;;;;;;;11.45;3.33;;;16.60;99.90;;;;;;5011639;28;20050;-81
2023/09/20 07:11:29;;;;;;;10.70;3.80;;;16.60;99.90;;;;;;5013616;28;20495;-87
2023/09/20 07:14:20;;;;;;;10.27;3.00;;;16.70;99.90;;;;;;5014001;28;20072;-86
2023/09/20 07:17:07;;;;;;;11.60;3.42;;;16.70;99.90;;;;;;5013945;28;20397;-82
2023/09/20 07:19:53;;;;;;;10.80;3.53;;;16.80;99.90;;;;;;5012308;28;20417;-83
2023/09/20 07:22:41;;;;;;;9.70;3.13;;;16.90;99.90;;;;;;4997035;28;20058;-82
2023/09/20 07:25:27;;;;;;;11.85;3.45;;;16.90;99.90;;;;;;4997629;28;20092;-79
2023/09/20 07:28:14;;;;;;;14.02;3.72;;;17.00;99.90;;;;;;4997944;28;20049;-79
2023/09/20 07:31:03;;;;;;;13.90;2.90;;;17.00;99.90;;;;;;5011759;28;20050;-83
2023/09/20 07:33:49;;;;;;;13.45;3.63;;;17.10;99.90;;;;;;5013811;28;20092;-79
2023/09/20 07:36:43;;;;;;;10.38;3.40;;;17.10;99.90;;;;;;5023996;28;20085;-77
2023/09/20 07:39:30;;;;;;;10.68;2.65;;;17.10;99.90;;;;;;5023458;28;20045;-78
2023/09/20 07:42:16;;;;;;;11.57;3.58;;;17.10;99.90;;;;;;5012743;28;20510;-82
2023/09/20 07:45:12;;;;;;;10.98;3.45;;;17.10;99.90;;;;;;5010797;28;20050;-79
2023/09/20 07:48:00;;;;;;;7.70;2.88;;;17.10;99.90;;;;;;5011218;28;20065;-82
2023/09/20 07:50:50;;;;;;;7.47;2.90;;;17.10;99.90;;;;;;4997192;28;20054;-80
2023/09/20 07:53:37;;;;;;;13.20;3.47;;;17.10;99.90;;;;;;5011980;28;20069;-81
2023/09/20 07:56:24;;;;;;;9.45;3.35;;;17.20;99.90;;;;;;5011039;28;20057;-81
2023/09/20 07:59:13;;;;;;;8.35;3.05;;;17.30;99.90;;;;;;5011753;28;20058;-83
2023/09/20 08:02:00;;;;;;;8.18;3.28;;;17.40;99.90;;;;;;4996464;28;20049;-88
2023/09/20 08:04:46;;;;;;;11.13;3.85;;;17.50;99.90;;;;;;5011026;28;20060;-86
2023/09/20 08:07:38;;;;;;;10.75;3.45;;;17.50;99.90;;;;;;5011280;28;20530;-82
2023/09/20 08:10:24;;;;;;;7.95;3.50;;;17.60;99.90;;;;;;5011505;28;20647;-85
2023/09/20 08:13:10;;;;;;;15.05;3.72;;;17.70;99.90;;;;;;4996680;28;20053;-86
2023/09/20 08:15:56;;;;;;;9.75;3.40;;;17.90;99.90;;;;;;5010222;28;20085;-82
2023/09/20 08:21:47;;;;;;;10.30;3.33;;;18.00;99.90;;;;;;5009844;28;20050;-88
2023/09/20 09:01:37;;;;;;;9.40;3.80;;;18.00;99.90;;;;;;5031235;28;20049;-91
2023/09/20 09:04:23;;;;;;;9.75;3.30;;;18.10;99.90;;;;;;5000742;28;20049;-86
2023/09/20 09:07:09;;;;;;;9.70;3.90;;;18.10;99.90;;;;;;5031440;28;20076;-88
2023/09/20 09:09:55;;;;;;;12.50;3.75;;;18.20;99.90;;;;;;5013299;28;20449;-85
2023/09/20 09:12:43;;;;;;;9.45;4.10;;;18.10;99.90;;;;;;5013292;28;20466;-87
2023/09/20 09:15:29;;;;;;;12.43;4.22;;;18.20;99.90;;;;;;5013878;28;20054;-91
2023/09/20 09:18:18;;;;;;;9.57;3.80;;;18.30;99.90;;;;;;5031038;28;20490;-83
2023/09/20 09:21:06;;;;;;;14.73;4.95;;;18.40;99.90;;;;;;5015883;28;20064;-82
2023/09/20 09:23:52;;;;;;;9.70;3.60;;;18.50;99.90;;;;;;5013368;28;20057;-89
2023/09/20 09:26:38;;;;;;;14.45;3.75;;;18.50;99.90;;;;;;5030514;28;20058;-87
2023/09/20 09:29:24;;;;;;;8.38;3.67;;;18.50;99.90;;;;;;5030654;28;20053;-87
2023/09/20 09:32:11;;;;;;;13.63;5.40;;;18.50;99.90;;;;;;5012406;28;20132;-89
2023/09/20 09:34:57;;;;;;;10.80;3.30;;;18.50;99.90;;;;;;5013209;28;20602;-84
2023/09/20 09:37:44;;;;;;;10.20;3.45;;;18.50;99.90;;;;;;5012696;28;20104;-83
2023/09/20 09:40:30;;;;;;;11.70;4.25;;;18.40;99.90;;;;;;5032035;28;20084;-81
2023/09/20 09:43:16;;;;;;;12.25;3.92;;;18.40;99.90;;;;;;5030958;28;20049;-88
2023/09/20 09:46:09;;;;;;;7.80;3.53;;;18.40;99.90;;;;;;5014883;28;20428;-84
2023/09/20 09:48:56;;;;;;;8.75;3.83;;;18.30;99.90;;;;;;4999678;28;20045;-81
2023/09/20 09:51:50;;;;;;;8.25;3.30;;;18.30;99.90;;;;;;5011996;28;20050;-84
2023/09/20 09:54:38;;;;;;;7.65;3.50;;;18.40;99.90;;;;;;5030474;28;20049;-87
2023/09/20 09:57:24;;;;;;;8.60;3.83;;;18.40;99.90;;;;;;5015794;28;20053;-85
2023/09/20 10:00:11;;;;;;;11.77;3.45;;;18.60;99.90;;;;;;5012882;28;20054;-79
2023/09/20 10:03:09;;;;;;;7.05;3.65;;;18.80;99.90;;;;;;5013057;28;20053;-82
2023/09/20 10:06:10;;;;;;;11.10;3.35;;;19.10;99.90;;;;;;5013346;28;20153;-78
2023/09/20 10:09:00;;;;;;;6.70;3.25;;;19.10;99.90;;;;;;5019778;28;20107;-78
2023/09/20 10:11:48;;;;;;;6.93;3.25;;;19.10;99.90;;;;;;5015743;28;20132;-80
2023/09/20 10:14:37;;;;;;;11.88;3.63;;;18.90;99.90;;;;;;5033524;28;20056;-78
2023/09/20 10:17:30;;;;;;;10.95;4.43;;;18.90;99.90;;;;;;5033973;28;20049;-77
2023/09/20 10:20:16;;;;;;;6.72;3.63;;;18.80;99.90;;;;;;5034702;28;20054;-79
2023/09/20 10:23:03;;;;;;;6.18;3.58;;;18.70;99.90;;;;;;5018896;28;20048;-79
2023/09/20 10:25:49;;;;;;;9.68;3.60;;;18.70;99.90;;;;;;5015997;28;20057;-77
2023/09/20 10:28:39;;;;;;;9.65;3.33;;;18.60;99.90;;;;;;5034684;28;20045;-82
2023/09/20 10:31:29;;;;;;;5.88;2.67;;;18.60;99.90;;;;;;5032472;28;20119;-79
2023/09/20 10:34:19;;;;;;;7.03;3.45;;;18.60;99.90;;;;;;5033088;28;20446;-81
2023/09/20 10:37:08;;;;;;;8.00;3.40;;;18.50;99.90;;;;;;5019374;28;20064;-83
2023/09/20 10:39:57;;;;;;;7.22;3.30;;;18.40;99.90;;;;;;5001912;28;20057;-79
2023/09/20 10:42:56;;;;;;;7.57;3.58;;;18.40;99.90;;;;;;5033356;28;20049;-78
2023/09/20 10:45:50;;;;;;;9.45;3.45;;;18.40;99.90;;;;;;5015797;28;20095;-79
2023/09/20 10:48:41;;;;;;;10.25;4.35;;;18.30;99.90;;;;;;5016134;28;20053;-78
2023/09/20 10:51:56;;;;;;;6.70;3.35;;;18.30;99.90;;;;;;5032560;28;20497;-85
2023/09/20 10:54:45;;;;;;;9.77;3.67;;;18.30;99.90;;;;;;5027658;28;20420;-79
2023/09/20 10:57:31;;;;;;;10.13;3.92;;;18.30;99.90;;;;;;5002477;28;20413;-82
2023/09/20 11:00:30;;;;;;;7.63;4.28;;;18.30;99.90;;;;;;5002095;28;20049;-79
2023/09/20 11:03:18;;;;;;;7.45;3.85;;;18.40;99.90;;;;;;5014857;28;20060;-79
2023/09/20 11:06:04;;;;;;;6.32;3.63;;;18.60;99.90;;;;;;5033590;28;20064;-79
2023/09/20 11:08:51;;;;;;;6.57;3.22;;;18.60;99.90;;;;;;5015754;28;20049;-78
2023/09/20 11:11:39;;;;;;;7.60;3.60;;;18.60;99.90;;;;;;5033158;28;20054;-81
2023/09/20 11:14:26;;;;;;;8.00;3.55;;;18.50;99.90;;;;;;5033648;28;20045;-83
2023/09/20 11:17:14;;;;;;;7.18;4.15;;;18.50;99.90;;;;;;5033807;28;20125;-81
2023/09/20 11:20:00;;;;;;;7.95;3.60;;;18.60;99.90;;;;;;5034058;28;20045;-82
2023/09/20 11:22:49;;;;;;;6.82;3.40;;;18.60;99.90;;;;;;5001764;28;20599;-79
2023/09/20 11:25:36;;;;;;;8.73;4.15;;;18.60;99.90;;;;;;5013488;28;20053;-89
2023/09/20 11:28:22;;;;;;;7.75;3.72;;;18.60;99.90;;;;;;5014516;28;20564;-82
2023/09/20 11:31:27;;;;;;;9.27;4.07;;;18.60;99.90;;;;;;5032890;28;20138;-86
2023/09/20 11:34:14;;;;;;;7.40;3.50;;;18.70;99.90;;;;;;5001321;28;20461;-83
2023/09/20 11:37:00;;;;;;;9.13;4.05;;;18.80;99.90;;;;;;5015236;28;20057;-88
2023/09/20 11:39:47;;;;;;;7.88;3.70;;;18.80;99.90;;;;;;5031940;28;20131;-81
2023/09/20 11:42:36;;;;;;;6.63;4.15;;;18.70;99.90;;;;;;5032986;28;20085;-80
2023/09/20 11:45:24;;;;;;;9.32;5.18;;;18.70;99.90;;;;;;5033328;28;20150;-85
2023/09/20 11:48:13;;;;;;;9.25;4.68;;;18.70;99.90;;;;;;5018373;28;20057;-80
2023/09/20 11:51:01;;;;;;;9.38;4.38;;;18.60;99.90;;;;;;5017013;28;20054;-85
2023/09/20 11:53:48;;;;;;;5.70;4.05;;;18.60;99.90;;;;;;5031693;28;20129;-81
2023/09/20 11:56:35;;;;;;;9.57;4.43;;;18.70;99.90;;;;;;5000219;28;20079;-82
2023/09/20 11:59:22;;;;;;;8.05;4.38;;;18.70;99.90;;;;;;5013950;28;20050;-87
2023/09/20 12:02:09;;;;;;;10.40;3.53;;;18.70;99.90;;;;;;5032853;28;20505;-85
2023/09/20 12:04:55;;;;;;;9.73;4.47;;;18.80;99.90;;;;;;5013926;28;20060;-84
2023/09/20 12:07:52;;;;;;;7.53;4.13;;;18.80;99.90;;;;;;5001100;28;20497;-81
2023/09/20 12:10:40;;;;;;;7.10;5.22;;;18.80;99.90;;;;;;5013513;28;20057;-87
2023/09/20 12:13:26;;;;;;;10.75;5.38;;;18.80;99.90;;;;;;5013551;28;20053;-83
2023/09/20 12:16:13;;;;;;;8.98;5.70;;;18.70;99.90;;;;;;5014706;28;20520;-86
2023/09/20 12:18:59;;;;;;;10.13;4.72;;;18.80;99.90;;;;;;5031635;28;20061;-91
2023/09/20 12:21:45;;;;;;;8.15;4.85;;;18.80;99.90;;;;;;5031839;28;20064;-86
2023/09/20 12:24:31;;;;;;;9.85;4.70;;;18.70;99.90;;;;;;5013688;28;20088;-84
2023/09/20 12:27:18;;;;;;;7.40;5.10;;;18.60;99.90;;;;;;5013781;28;20061;-79
2023/09/20 12:30:06;;;;;;;8.60;5.30;;;18.60;99.90;;;;;;5014158;28;20045;-81
2023/09/20 12:32:52;;;;;;;8.70;4.90;;;18.50;99.90;;;;;;5015367;28;20107;-87
2023/09/20 12:35:40;;;;;;;10.30;5.40;;;18.50;99.90;;;;;;5016091;28;20057;-80
2023/09/20 12:38:29;;;;;;;7.97;4.22;;;18.50;99.90;;;;;;5034185;28;20092;-86
2023/09/20 12:41:15;;;;;;;6.88;3.70;;;18.50;99.90;;;;;;5034292;28;20041;-86
2023/09/20 12:44:01;;;;;;;6.90;3.53;;;18.60;99.90;;;;;;5032085;28;20056;-82
2023/09/20 12:46:48;;;;;;;11.00;3.95;;;18.50;99.90;;;;;;5015688;28;20148;-89
2023/09/20 12:49:36;;;;;;;8.85;4.55;;;18.60;99.90;;;;;;5033925;28;20057;-91
2023/09/20 12:52:22;;;;;;;7.63;3.58;;;18.60;99.90;;;;;;5032421;28;20073;-89
2023/09/20 12:55:10;;;;;;;8.73;3.60;;;18.60;99.90;;;;;;5013627;28;20164;-81
2023/09/20 12:57:56;;;;;;;6.47;3.35;;;18.60;99.90;;;;;;5016332;28;20386;-82
2023/09/20 13:00:43;;;;;;;7.72;3.30;;;18.60;99.90;;;;;;5013437;28;20804;-78
2023/09/20 13:03:31;;;;;;;7.55;3.40;;;18.70;99.90;;;;;;5030245;28;20050;-80
2023/09/20 13:06:17;;;;;;;7.70;2.80;;;18.60;99.90;;;;;;5017635;28;20073;-85
2023/09/20 13:09:03;;;;;;;10.85;5.15;;;18.70;99.90;;;;;;5032164;28;20061;-85
2023/09/20 13:11:51;;;;;;;7.43;3.67;;;18.70;99.90;;;;;;5013287;28;20057;-79
2023/09/20 13:14:37;;;;;;;7.22;4.00;;;18.80;99.90;;;;;;5031200;28;20056;-87
2023/09/20 13:17:23;;;;;;;9.77;3.72;;;18.80;99.90;;;;;;5037921;28;20084;-79
2023/09/20 13:20:13;;;;;;;10.10;4.78;;;18.80;99.90;;;;;;5019112;28;20053;-81
2023/09/20 13:22:59;;;;;;;11.48;4.40;;;18.80;99.90;;;;;;5012136;28;20133;-78
2023/09/20 13:25:45;;;;;;;9.43;4.53;;;18.80;99.90;;;;;;5012915;28;20064;-80
2023/09/20 13:28:31;;;;;;;9.88;4.38;;;18.90;99.90;;;;;;5030433;28;20037;-77
2023/09/20 13:31:18;;;;;;;8.98;4.32;;;19.10;99.90;;;;;;5012645;28;20490;-79
2023/09/20 13:34:11;;;;;;;6.68;3.75;;;19.20;99.90;;;;;;5030476;28;20489;-79
2023/09/20 13:36:57;;;;;;;8.05;3.97;;;19.50;99.90;;;;;;4999843;28;20060;-76
2023/09/20 13:39:43;;;;;;;10.13;4.30;;;19.80;99.90;;;;;;5012969;28;20057;-78
2023/09/20 13:42:32;;;;;;;10.07;4.95;;;19.90;99.90;;;;;;5034536;28;20072;-78
2023/09/20 13:45:18;;;;;;;7.53;3.40;;;20.10;99.90;;;;;;5016813;28;20408;-86
2023/09/20 13:48:04;;;;;;;6.80;3.55;;;20.60;99.90;;;;;;5033477;28;20075;-78
2023/09/20 13:50:50;;;;;;;9.82;3.85;;;20.60;99.90;;;;;;5035012;28;20057;-78
2023/09/20 13:53:36;;;;;;;11.68;3.60;;;20.50;99.90;;;;;;5034057;28;20053;-79
2023/09/20 13:56:23;;;;;;;6.03;3.35;;;20.40;99.90;;;;;;5016923;28;20142;-80
2023/09/20 13:59:10;;;;;;;9.07;4.15;;;20.50;99.90;;;;;;5033806;28;20132;-78
2023/09/20 14:02:00;;;;;;;7.65;3.10;;;20.40;99.90;;;;;;5017024;28;20053;-78
2023/09/20 14:04:46;;;;;;;6.70;3.33;;;20.40;99.90;;;;;;5016087;28;20093;-78
2023/09/20 14:07:32;;;;;;;8.80;3.15;;;20.40;99.90;;;;;;5016827;28;20517;-85
2023/09/20 14:10:19;;;;;;;9.68;3.40;;;20.40;99.90;;;;;;5034477;28;20069;-81
2023/09/20 14:13:07;;;;;;;8.55;3.63;;;20.30;99.90;;;;;;5016516;28;20057;-82
2023/09/20 14:15:57;;;;;;;8.70;3.28;;;20.30;99.90;;;;;;5033307;28;20049;-82
2023/09/20 14:18:43;;;;;;;6.50;2.80;;;20.20;99.90;;;;;;5015526;28;20049;-78
2023/09/20 14:21:30;;;;;;;6.53;2.85;;;20.30;99.90;;;;;;5002210;28;20118;-79
2023/09/20 14:24:16;;;;;;;6.10;2.90;;;20.40;99.90;;;;;;5033639;28;20067;-82
2023/09/20 14:27:02;;;;;;;5.32;2.78;;;20.40;99.90;;;;;;5033769;28;20139;-81
2023/09/20 14:29:49;;;;;;;10.00;3.28;;;20.40;99.90;;;;;;5019161;28;20049;-84
2023/09/20 14:32:35;;;;;;;5.82;3.05;;;20.40;99.90;;;;;;5015675;28;20046;-90
2023/09/20 14:35:22;;;;;;;6.50;3.15;;;20.50;99.90;;;;;;5016031;28;20085;-84
2023/09/20 14:38:08;;;;;;;6.68;3.58;;;20.60;99.90;;;;;;5014709;28;20132;-82
2023/09/20 14:40:54;;;;;;;6.45;2.90;;;20.70;99.90;;;;;;5018333;28;20049;-80
2023/09/20 14:43:40;;;;;;;6.72;3.17;;;20.80;99.90;;;;;;5015558;28;20092;-80
2023/09/20 14:46:26;;;;;;;7.13;3.42;;;20.70;99.90;;;;;;5001008;28;20049;-88
2023/09/20 14:49:12;;;;;;;8.05;3.78;;;20.60;99.90;;;;;;5015291;28;20057;-79
2023/09/20 14:52:01;;;;;;;9.60;3.55;;;20.60;99.90;;;;;;5014863;28;20439;-80
2023/09/20 14:54:47;;;;;;;7.03;3.38;;;20.60;99.90;;;;;;5032250;28;20053;-85
2023/09/20 14:57:33;;;;;;;7.05;3.65;;;20.60;99.90;;;;;;5032598;28;20508;-90
2023/09/20 15:00:22;;;;;;;8.27;3.60;;;20.50;99.90;;;;;;5033124;28;20046;-84
2023/09/20 15:03:11;;;;;;;8.90;3.22;;;20.50;99.90;;;;;;5014643;28;20553;-80
2023/09/20 15:05:57;;;;;;;7.13;4.15;;;20.60;99.90;;;;;;5014869;28;20060;-83